createdAt,value
2023-02-09T00:00:16.328Z,30.43
2023-02-09T00:02:44.536Z,30.33
2023-02-09T00:05:12.861Z,31.07
2023-02-09T00:07:40.804Z,32.67
2023-02-09T00:10:09.193Z,35.57
2023-02-09T00:12:55.545Z,34.27
2023-02-09T00:15:24.952Z,32.17
2023-02-09T00:17:53.051Z,38.37
2023-02-09T00:20:21.068Z,31.63
2023-02-09T00:22:49.026Z,35.70
2023-02-09T00:25:16.993Z,31.33
2023-02-09T00:27:44.933Z,35.23
2023-02-09T00:30:13.616Z,34.40
2023-02-09T00:32:43.181Z,31.07
2023-02-09T00:35:11.127Z,34.10
2023-02-09T00:37:39.049Z,33.80
2023-02-09T00:40:07.416Z,35.60
2023-02-09T00:42:35.346Z,37.40
2023-02-09T00:45:06.641Z,29.87
2023-02-09T00:47:34.621Z,31.93
2023-02-09T00:50:06.857Z,32.27
2023-02-09T00:52:34.882Z,30.77
2023-02-09T00:55:02.812Z,27.93
2023-02-09T00:57:30.815Z,31.73
2023-02-09T00:59:58.795Z,33.40
2023-02-09T01:02:26.773Z,32.20
2023-02-09T01:04:54.892Z,30.10
2023-02-09T01:07:24.560Z,30.37
2023-02-09T01:09:52.596Z,27.63
2023-02-09T01:12:20.647Z,32.23
2023-02-09T01:14:48.710Z,32.63
2023-02-09T01:17:16.667Z,33.27
2023-02-09T01:19:44.658Z,31.20
2023-02-09T01:22:13.222Z,32.80
2023-02-09T01:24:42.644Z,36.80
2023-02-09T01:27:10.636Z,31.70
2023-02-09T01:29:39.402Z,36.37
2023-02-09T01:32:07.399Z,33.37
2023-02-09T01:34:35.557Z,36.70
2023-02-09T01:37:06.641Z,28.13
2023-02-09T01:39:34.665Z,28.27
2023-02-09T01:42:05.024Z,30.07
2023-02-09T01:45:00.155Z,28.23
2023-02-09T01:47:28.140Z,32.57
2023-02-09T01:49:56.169Z,26.47
2023-02-09T01:52:26.777Z,29.37
2023-02-09T01:54:56.916Z,33.73
2023-02-09T01:57:27.892Z,30.70
2023-02-09T01:59:58.679Z,32.57
2023-02-09T02:02:26.931Z,31.33
2023-02-09T02:04:55.287Z,30.63
2023-02-09T02:07:28.485Z,28.23
2023-02-09T02:09:56.822Z,26.40
2023-02-09T02:12:26.298Z,26.03
2023-02-09T02:14:54.329Z,32.00
2023-02-09T02:17:29.275Z,27.53
2023-02-09T02:20:12.041Z,26.43
2023-02-09T02:22:51.786Z,28.93
2023-02-09T02:25:34.493Z,27.83
2023-02-09T02:28:11.630Z,22.07
2023-02-09T02:30:45.381Z,28.73
2023-02-09T02:33:18.969Z,29.67
2023-02-09T02:35:51.584Z,30.73
2023-02-09T02:38:22.620Z,25.53
2023-02-09T02:40:55.903Z,26.97
2023-02-09T02:43:26.519Z,28.33
2023-02-09T02:45:57.898Z,31.93
2023-02-09T02:48:31.299Z,26.80
2023-02-09T02:51:01.508Z,30.23
2023-02-09T02:53:31.541Z,24.47
2023-02-09T02:56:04.291Z,22.17
2023-02-09T02:58:33.337Z,31.90
2023-02-09T03:01:02.984Z,32.50
2023-02-09T03:03:35.296Z,26.73
2023-02-09T03:06:05.618Z,29.80
2023-02-09T03:08:47.183Z,26.70
2023-02-09T03:11:15.295Z,28.40
2023-02-09T03:13:51.290Z,29.47
2023-02-09T03:16:27.089Z,25.50
2023-02-09T03:19:04.274Z,21.87
2023-02-09T03:21:37.964Z,24.27
2023-02-09T03:24:07.862Z,28.23
2023-02-09T03:26:40.311Z,25.60
2023-02-09T03:29:09.296Z,25.40
2023-02-09T03:31:38.137Z,23.67
2023-02-09T03:34:08.012Z,23.80
2023-02-09T03:36:39.339Z,25.50
2023-02-09T03:39:07.322Z,24.07
2023-02-09T03:41:35.351Z,28.27
2023-02-09T03:44:20.999Z,23.87
2023-02-09T03:46:49.072Z,26.03
2023-02-09T03:49:18.505Z,23.10
2023-02-09T03:51:46.608Z,25.87
2023-02-09T03:54:14.600Z,25.37
2023-02-09T03:56:42.623Z,27.10
2023-02-09T03:59:10.657Z,31.57
2023-02-09T04:01:38.651Z,27.37
2023-02-09T04:04:06.612Z,27.10
2023-02-09T04:06:36.551Z,23.77
2023-02-09T04:09:05.656Z,24.47
2023-02-09T04:11:33.786Z,21.80
2023-02-09T04:14:01.792Z,26.97
2023-02-09T04:16:29.943Z,25.50
2023-02-09T04:18:57.983Z,24.63
2023-02-09T04:21:25.925Z,31.03
2023-02-09T04:23:55.424Z,24.47
2023-02-09T04:26:23.466Z,27.47
2023-02-09T04:28:51.550Z,26.87
2023-02-09T04:31:19.833Z,21.90
2023-02-09T04:33:47.870Z,22.67
2023-02-09T04:36:15.833Z,28.87
2023-02-09T04:38:43.841Z,24.43
2023-02-09T04:41:13.240Z,28.70
2023-02-09T04:43:41.153Z,25.30
2023-02-09T04:46:13.082Z,22.00
2023-02-09T04:48:41.056Z,24.23
2023-02-09T04:51:08.985Z,25.73
2023-02-09T04:53:37.096Z,27.23
2023-02-09T04:56:05.253Z,23.17
2023-02-09T04:58:55.112Z,26.77
2023-02-09T05:01:24.123Z,24.73
2023-02-09T05:03:52.566Z,26.67
2023-02-09T05:06:20.865Z,22.57
2023-02-09T05:08:49.084Z,24.37
2023-02-09T05:11:17.372Z,22.67
2023-02-09T05:13:46.945Z,25.67
2023-02-09T05:16:17.570Z,27.47
2023-02-09T05:18:45.590Z,25.73
2023-02-09T05:21:15.145Z,27.57
2023-02-09T05:23:43.410Z,25.27
2023-02-09T05:26:11.338Z,29.40
2023-02-09T05:28:39.316Z,25.80
2023-02-09T05:31:08.917Z,23.97
2023-02-09T05:33:36.899Z,29.07
2023-02-09T05:36:09.581Z,22.03
2023-02-09T05:38:37.761Z,29.03
2023-02-09T05:41:06.237Z,25.80
2023-02-09T05:43:35.480Z,21.83
2023-02-09T05:46:03.618Z,28.97
2023-02-09T05:48:33.980Z,25.20
2023-02-09T05:51:01.966Z,25.50
2023-02-09T05:53:29.978Z,23.13
2023-02-09T05:55:57.886Z,26.50
2023-02-09T05:58:25.842Z,26.10
2023-02-09T06:00:53.783Z,22.17
2023-02-09T06:03:21.982Z,26.77
2023-02-09T06:05:51.440Z,30.63
2023-02-09T06:08:19.409Z,27.23
2023-02-09T06:10:48.115Z,24.27
2023-02-09T06:13:17.171Z,25.37
2023-02-09T06:15:45.183Z,23.80
2023-02-09T06:18:13.163Z,25.33
2023-02-09T06:20:41.151Z,27.37
2023-02-09T06:23:10.488Z,26.17
2023-02-09T06:25:39.868Z,25.07
2023-02-09T06:28:08.002Z,27.43
2023-02-09T06:30:36.156Z,26.57
2023-02-09T06:33:04.152Z,30.43
2023-02-09T06:35:32.158Z,23.23
2023-02-09T06:38:00.451Z,25.33
2023-02-09T06:40:30.234Z,25.30
2023-02-09T06:42:58.418Z,26.43
2023-02-09T06:45:26.388Z,28.33
2023-02-09T06:47:54.366Z,26.30
2023-02-09T06:50:22.526Z,23.00
2023-02-09T06:52:50.657Z,27.33
2023-02-09T06:55:18.609Z,20.67
2023-02-09T06:57:48.083Z,23.40
2023-02-09T07:00:16.527Z,28.90
2023-02-09T07:02:44.981Z,25.30
2023-02-09T07:05:13.306Z,22.97
2023-02-09T07:07:44.187Z,26.53
2023-02-09T07:10:13.620Z,29.13
2023-02-09T07:12:43.618Z,25.40
2023-02-09T07:15:13.487Z,29.83
2023-02-09T07:17:42.480Z,22.03
2023-02-09T07:20:11.152Z,23.37
2023-02-09T07:22:39.134Z,24.43
2023-02-09T07:25:07.598Z,20.27
2023-02-09T07:27:35.856Z,23.30
2023-02-09T07:30:03.893Z,28.10
2023-02-09T07:32:34.330Z,21.13
2023-02-09T07:35:02.321Z,29.37
2023-02-09T07:37:30.267Z,21.23
2023-02-09T07:39:58.346Z,21.93
2023-02-09T07:42:26.354Z,25.87
2023-02-09T07:44:54.803Z,27.20
2023-02-09T07:47:22.704Z,26.37
2023-02-09T07:49:52.128Z,21.00
2023-02-09T07:52:20.607Z,28.37
2023-02-09T07:54:50.736Z,32.37
2023-02-09T07:57:18.890Z,31.77
2023-02-09T07:59:46.854Z,28.47
2023-02-09T08:02:18.089Z,24.87
2023-02-09T08:04:46.310Z,28.57
2023-02-09T08:07:15.785Z,31.57
2023-02-09T08:09:46.721Z,31.13
2023-02-09T08:12:15.097Z,31.17
2023-02-09T08:14:48.406Z,26.40
2023-02-09T08:17:26.130Z,28.80
2023-02-09T08:19:55.295Z,27.53
2023-02-09T08:22:25.666Z,27.93
2023-02-09T08:24:54.125Z,26.53
2023-02-09T08:27:23.388Z,26.07
2023-02-09T08:29:51.685Z,21.03
2023-02-09T08:32:19.944Z,27.07
2023-02-09T08:34:54.626Z,31.70
2023-02-09T08:37:22.666Z,26.13
2023-02-09T08:39:52.233Z,30.93
2023-02-09T08:42:20.230Z,29.50
2023-02-09T08:44:48.258Z,26.60
2023-02-09T08:47:16.543Z,23.37
2023-02-09T08:49:44.646Z,25.47
2023-02-09T08:52:12.810Z,23.43
2023-02-09T08:54:41.041Z,31.57
2023-02-09T08:57:10.403Z,24.67
2023-02-09T08:59:38.383Z,21.43
2023-02-09T09:02:06.311Z,23.53
2023-02-09T09:04:39.344Z,30.07
2023-02-09T09:07:07.900Z,29.50
2023-02-09T09:09:36.749Z,23.93
2023-02-09T09:12:04.912Z,26.10
2023-02-09T09:14:34.394Z,29.03
2023-02-09T09:17:03.065Z,31.87
2023-02-09T09:19:31.116Z,26.67
2023-02-09T09:22:00.490Z,24.90
2023-02-09T09:24:29.468Z,22.10
2023-02-09T09:26:57.841Z,25.40
2023-02-09T09:29:25.889Z,21.30
2023-02-09T09:31:55.423Z,21.33
2023-02-09T09:34:23.492Z,22.00
2023-02-09T09:36:51.972Z,26.20
2023-02-09T09:39:20.086Z,25.23
2023-02-09T09:41:48.967Z,22.27
2023-02-09T09:44:19.201Z,22.90
2023-02-09T09:46:51.780Z,26.60
2023-02-09T09:49:24.374Z,19.57
2023-02-09T09:51:55.167Z,27.90
2023-02-09T09:54:24.843Z,20.97
2023-02-09T09:56:53.895Z,25.27
2023-02-09T09:59:23.258Z,23.10
2023-02-09T10:01:52.537Z,25.37
2023-02-09T10:04:21.649Z,22.93
2023-02-09T10:06:54.245Z,20.83
2023-02-09T10:09:27.148Z,21.27
2023-02-09T10:11:57.408Z,21.53
2023-02-09T10:14:25.576Z,23.43
2023-02-09T10:16:53.753Z,19.53
2023-02-09T10:19:22.886Z,20.77
2023-02-09T10:21:52.678Z,18.37
2023-02-09T10:24:22.963Z,22.13
2023-02-09T10:27:03.341Z,19.63
2023-02-09T10:29:32.474Z,23.30
2023-02-09T10:32:07.553Z,24.33
2023-02-09T10:34:42.816Z,24.33
2023-02-09T10:37:26.594Z,22.53
2023-02-09T10:39:57.523Z,20.53
2023-02-09T10:42:28.488Z,21.47
2023-02-09T10:44:57.249Z,21.03
2023-02-09T10:47:27.711Z,18.03
2023-02-09T10:49:56.514Z,19.27
2023-02-09T10:52:26.700Z,24.37
2023-02-09T10:54:56.688Z,24.83
2023-02-09T10:57:26.729Z,22.63
2023-02-09T10:59:55.886Z,19.43
2023-02-09T11:02:31.555Z,15.00
2023-02-09T11:04:59.505Z,20.73
2023-02-09T11:07:33.340Z,21.17
2023-02-09T11:10:03.626Z,16.13
2023-02-09T11:12:31.633Z,22.00
2023-02-09T11:14:59.642Z,21.90
2023-02-09T11:17:29.430Z,27.93
2023-02-09T11:20:16.336Z,28.67
2023-02-09T11:22:52.006Z,20.07
2023-02-09T11:25:22.869Z,17.67
2023-02-09T11:27:57.245Z,22.20
2023-02-09T11:30:46.084Z,16.73
2023-02-09T11:33:18.955Z,14.33
2023-02-09T11:35:49.519Z,17.90
2023-02-09T11:38:20.328Z,13.73
2023-02-09T11:40:50.476Z,11.87
2023-02-09T11:43:21.836Z,14.33
2023-02-09T11:45:50.505Z,14.17
2023-02-09T11:48:21.903Z,17.00
2023-02-09T11:50:55.218Z,15.57
2023-02-09T11:53:29.493Z,16.27
2023-02-09T11:55:59.005Z,12.37
2023-02-09T11:58:32.300Z,13.57
2023-02-09T12:01:14.814Z,18.87
2023-02-09T12:03:46.340Z,18.67
2023-02-09T12:06:17.350Z,18.80
2023-02-09T12:08:51.692Z,13.03
2023-02-09T12:11:24.769Z,16.67
2023-02-09T12:13:58.574Z,14.27
2023-02-09T12:16:28.695Z,14.53
2023-02-09T12:18:56.912Z,14.93
2023-02-09T12:21:32.799Z,13.60
2023-02-09T12:24:02.521Z,16.03
2023-02-09T12:26:38.085Z,14.10
2023-02-09T12:29:23.135Z,16.80
2023-02-09T12:32:09.747Z,12.90
2023-02-09T12:34:41.676Z,13.03
2023-02-09T12:37:30.236Z,12.37
2023-02-09T12:40:22.754Z,11.87
2023-02-09T12:43:09.470Z,9.27
2023-02-09T12:45:38.685Z,12.23
2023-02-09T12:48:19.418Z,12.63
2023-02-09T12:50:51.868Z,11.00
2023-02-09T12:53:43.074Z,13.40
2023-02-09T12:56:29.971Z,10.27
2023-02-09T12:59:07.449Z,11.00
2023-02-09T13:01:53.916Z,9.63
2023-02-09T13:04:22.146Z,10.13
2023-02-09T13:06:53.037Z,9.80
2023-02-09T13:09:24.962Z,15.80
2023-02-09T13:11:57.183Z,9.90
2023-02-09T13:14:25.847Z,10.00
2023-02-09T13:17:07.933Z,9.97
2023-02-09T13:19:54.085Z,9.33
2023-02-09T13:22:30.282Z,9.93
2023-02-09T13:25:00.331Z,9.40
2023-02-09T13:27:30.770Z,11.03
2023-02-09T13:29:59.572Z,10.83
2023-02-09T13:32:36.417Z,6.80
2023-02-09T13:35:07.865Z,6.47
2023-02-09T13:37:38.965Z,8.57
2023-02-09T13:40:14.943Z,9.20
2023-02-09T13:42:54.021Z,9.03
2023-02-09T13:45:23.996Z,12.73
2023-02-09T13:47:52.478Z,7.87
2023-02-09T13:50:21.717Z,10.90
2023-02-09T13:52:50.931Z,9.10
2023-02-09T13:55:20.082Z,8.47
2023-02-09T13:57:51.699Z,15.73
2023-02-09T14:00:27.717Z,9.37
2023-02-09T14:02:58.091Z,9.47
2023-02-09T14:05:33.534Z,8.43
2023-02-09T14:08:02.006Z,8.07
2023-02-09T14:10:30.804Z,9.57
2023-02-09T14:13:02.003Z,7.90
2023-02-09T14:15:55.238Z,10.67
2023-02-09T14:18:40.688Z,8.90
2023-02-09T14:21:19.325Z,6.90
2023-02-09T14:23:48.444Z,9.37
2023-02-09T14:26:22.138Z,9.77
2023-02-09T14:28:51.609Z,8.33
2023-02-09T14:31:22.865Z,16.60
2023-02-09T14:33:52.048Z,9.87
2023-02-09T14:36:23.175Z,8.87
2023-02-09T14:38:51.849Z,8.43
2023-02-09T14:41:29.932Z,8.23
2023-02-09T14:43:59.674Z,10.93
2023-02-09T14:46:29.280Z,11.23
2023-02-09T14:48:57.787Z,12.13
2023-02-09T14:51:27.720Z,11.10
2023-02-09T14:53:56.165Z,9.73
2023-02-09T14:56:25.182Z,6.97
2023-02-09T14:58:53.188Z,11.90
2023-02-09T15:01:21.234Z,8.30
2023-02-09T15:03:50.650Z,12.03
2023-02-09T15:06:18.612Z,6.93
2023-02-09T15:08:46.762Z,10.33
2023-02-09T15:11:44.823Z,8.13
2023-02-09T15:14:12.918Z,10.27
2023-02-09T15:16:40.873Z,8.50
2023-02-09T15:19:14.711Z,8.97
2023-02-09T15:21:42.699Z,10.87
2023-02-09T15:24:10.624Z,12.43
2023-02-09T15:26:38.820Z,7.03
2023-02-09T15:29:10.771Z,8.97
2023-02-09T15:31:38.724Z,9.07
2023-02-09T15:34:06.991Z,6.93
2023-02-09T15:36:36.432Z,10.47
2023-02-09T15:39:04.653Z,9.70
2023-02-09T15:41:50.009Z,9.53
2023-02-09T15:44:36.215Z,12.63
2023-02-09T15:47:21.808Z,8.13
2023-02-09T15:49:49.881Z,10.00
2023-02-09T15:52:19.667Z,36.77
2023-02-09T15:54:47.689Z,13.57
2023-02-09T15:57:16.524Z,10.30
2023-02-09T15:59:46.452Z,6.70
2023-02-09T16:02:15.054Z,8.97
2023-02-09T16:04:43.264Z,9.77
2023-02-09T16:07:12.815Z,8.57
2023-02-09T16:09:43.527Z,9.17
2023-02-09T16:12:12.045Z,8.30
2023-02-09T16:14:40.045Z,6.97
2023-02-09T16:17:09.062Z,9.47
2023-02-09T16:19:37.025Z,10.67
2023-02-09T16:22:07.549Z,11.30
2023-02-09T16:24:38.681Z,9.23
2023-02-09T16:27:14.309Z,9.23
2023-02-09T16:29:42.309Z,11.90
2023-02-09T16:32:15.827Z,34.33
2023-02-09T16:34:44.148Z,13.43
2023-02-09T16:37:15.335Z,11.00
2023-02-09T16:39:43.554Z,10.90
2023-02-09T16:42:14.573Z,9.13
2023-02-09T16:44:42.820Z,10.43
2023-02-09T16:47:16.987Z,8.17
2023-02-09T16:49:46.864Z,10.90
2023-02-09T16:52:16.453Z,11.67
2023-02-09T16:54:45.569Z,9.43
2023-02-09T16:57:16.454Z,9.20
2023-02-09T16:59:44.712Z,10.47
2023-02-09T17:02:30.202Z,7.30
2023-02-09T17:04:58.799Z,12.57
2023-02-09T17:07:30.167Z,10.77
2023-02-09T17:10:00.067Z,11.77
2023-02-09T17:12:29.696Z,11.27
2023-02-09T17:14:57.638Z,8.43
2023-02-09T17:17:25.559Z,10.20
2023-02-09T17:19:54.007Z,11.70
2023-02-09T17:22:22.424Z,9.40
2023-02-09T17:24:50.429Z,8.90
2023-02-09T17:27:18.429Z,8.23
2023-02-09T17:29:47.890Z,10.10
2023-02-09T17:32:16.728Z,11.80
2023-02-09T17:34:44.682Z,18.43
2023-02-09T17:37:14.798Z,12.27
2023-02-09T17:39:43.054Z,11.27
2023-02-09T17:42:20.915Z,14.00
2023-02-09T17:44:50.980Z,12.37
2023-02-09T17:47:20.094Z,9.73
2023-02-09T17:49:48.338Z,9.67
2023-02-09T17:52:17.462Z,11.90
2023-02-09T17:54:45.670Z,15.67
2023-02-09T17:57:14.116Z,14.03
2023-02-09T17:59:42.132Z,20.03
2023-02-09T18:02:16.802Z,21.77
2023-02-09T18:04:45.037Z,20.53
2023-02-09T18:07:14.570Z,19.10
2023-02-09T18:09:42.644Z,23.77
2023-02-09T18:12:14.277Z,25.97
2023-02-09T18:14:42.200Z,32.40
2023-02-09T18:17:10.213Z,23.60
2023-02-09T18:19:39.669Z,22.70
2023-02-09T18:22:08.046Z,19.33
2023-02-09T18:24:36.755Z,25.53
2023-02-09T18:27:04.864Z,19.30
2023-02-09T18:29:32.887Z,17.33
2023-02-09T18:32:01.581Z,16.97
2023-02-09T18:34:29.594Z,15.90
2023-02-09T18:36:59.047Z,18.03
2023-02-09T18:39:26.990Z,12.80
2023-02-09T18:41:55.618Z,18.57
2023-02-09T18:44:28.892Z,16.93
2023-02-09T18:46:57.488Z,18.00
2023-02-09T18:49:25.502Z,13.93
2023-02-09T18:51:53.554Z,13.87
2023-02-09T18:54:22.937Z,14.27
2023-02-09T18:56:52.856Z,12.10
2023-02-09T18:59:20.969Z,13.60
2023-02-09T19:01:50.114Z,15.27
2023-02-09T19:04:18.770Z,15.90
2023-02-09T19:06:46.769Z,13.00
2023-02-09T19:09:14.824Z,14.53
2023-02-09T19:11:44.188Z,13.23
2023-02-09T19:14:29.628Z,11.10
2023-02-09T19:16:57.625Z,13.33
2023-02-09T19:19:26.301Z,13.73
2023-02-09T19:21:54.637Z,12.77
2023-02-09T19:24:22.723Z,14.43
2023-02-09T19:26:52.149Z,13.80
2023-02-09T19:29:20.131Z,13.67
2023-02-09T19:31:48.796Z,12.37
2023-02-09T19:34:16.731Z,12.73
2023-02-09T19:36:44.920Z,13.37
2023-02-09T19:39:12.916Z,13.97
2023-02-09T19:41:40.869Z,13.37
2023-02-09T19:44:10.742Z,15.73
2023-02-09T19:46:39.045Z,13.90
2023-02-09T19:49:07.118Z,14.13
2023-02-09T19:51:35.095Z,15.53
2023-02-09T19:54:03.063Z,14.03
2023-02-09T19:56:31.002Z,13.73
2023-02-09T19:58:58.967Z,16.23
2023-02-09T20:01:29.782Z,15.33
2023-02-09T20:03:57.735Z,19.63
2023-02-09T20:06:25.933Z,14.23
2023-02-09T20:08:53.894Z,15.47
2023-02-09T20:11:22.096Z,14.07
2023-02-09T20:13:51.013Z,18.43
2023-02-09T20:16:20.253Z,12.00
2023-02-09T20:18:50.014Z,11.87
2023-02-09T20:21:18.882Z,12.30
2023-02-09T20:23:47.246Z,18.30
2023-02-09T20:26:16.185Z,13.77
2023-02-09T20:28:44.418Z,14.10
2023-02-09T20:31:14.336Z,15.40
2023-02-09T20:33:43.586Z,13.30
2023-02-09T20:36:13.054Z,16.13
2023-02-09T20:38:41.012Z,16.53
2023-02-09T20:41:09.785Z,17.23
2023-02-09T20:43:55.103Z,19.90
2023-02-09T20:46:41.695Z,18.97
2023-02-09T20:49:10.195Z,16.63
2023-02-09T20:51:39.851Z,20.53
2023-02-09T20:54:08.145Z,21.73
2023-02-09T20:56:36.269Z,14.20
2023-02-09T20:59:04.781Z,17.97
2023-02-09T21:01:32.735Z,14.20
2023-02-09T21:04:00.830Z,13.20
2023-02-09T21:06:29.101Z,16.57
2023-02-09T21:08:58.606Z,13.93
2023-02-09T21:11:26.629Z,13.80
2023-02-09T21:13:55.257Z,13.73
2023-02-09T21:16:25.606Z,19.57
2023-02-09T21:18:53.755Z,13.70
2023-02-09T21:21:22.461Z,14.00
2023-02-09T21:23:50.427Z,11.30
2023-02-09T21:26:22.717Z,12.93
2023-02-09T21:28:52.220Z,12.47
2023-02-09T21:31:21.474Z,11.97
2023-02-09T21:33:49.503Z,11.53
2023-02-09T21:36:17.445Z,14.70
2023-02-09T21:38:45.355Z,12.63
2023-02-09T21:41:34.404Z,12.87
2023-02-09T21:44:04.309Z,15.93
2023-02-09T21:46:32.374Z,14.53
2023-02-09T21:49:00.547Z,15.57
2023-02-09T21:51:28.500Z,17.27
2023-02-09T21:53:56.487Z,13.70
2023-02-09T21:56:24.539Z,12.70
2023-02-09T21:58:52.550Z,13.20
2023-02-09T22:01:21.951Z,17.40
2023-02-09T22:03:52.920Z,17.80
2023-02-09T22:06:20.897Z,14.10
2023-02-09T22:08:48.831Z,18.00
2023-02-09T22:11:16.835Z,15.63
2023-02-09T22:13:44.790Z,15.47
2023-02-09T22:16:17.150Z,13.33
2023-02-09T22:18:46.558Z,13.97
2023-02-09T22:21:14.556Z,14.27
2023-02-09T22:23:42.703Z,13.30
2023-02-09T22:26:10.815Z,20.13
2023-02-09T22:28:38.867Z,12.90
2023-02-09T22:31:07.497Z,13.73
2023-02-09T22:33:35.505Z,12.27
2023-02-09T22:36:07.132Z,12.93
2023-02-09T22:38:35.299Z,13.23
2023-02-09T22:41:07.278Z,15.67
2023-02-09T22:43:35.308Z,16.03
2023-02-09T22:46:03.327Z,12.93
2023-02-09T22:48:31.357Z,13.07
2023-02-09T22:50:59.360Z,17.43
2023-02-09T22:53:28.846Z,14.10
2023-02-09T22:55:56.769Z,12.43
2023-02-09T22:58:24.727Z,12.13
2023-02-09T23:00:52.667Z,15.37
2023-02-09T23:03:20.596Z,18.63
2023-02-09T23:05:48.798Z,13.07
2023-02-09T23:08:16.912Z,11.37
2023-02-09T23:10:46.295Z,14.60
2023-02-09T23:13:14.267Z,15.70
2023-02-09T23:15:42.181Z,17.23
2023-02-09T23:18:10.194Z,14.53
2023-02-09T23:20:38.160Z,22.77
2023-02-09T23:23:06.728Z,16.00
2023-02-09T23:25:34.695Z,16.00
2023-02-09T23:28:04.090Z,14.67
2023-02-09T23:30:32.032Z,14.93
2023-02-09T23:33:00.009Z,16.50
2023-02-09T23:35:27.977Z,15.33
2023-02-09T23:37:55.934Z,20.03
2023-02-09T23:40:23.885Z,14.10
2023-02-09T23:42:51.873Z,16.33
2023-02-09T23:45:21.263Z,11.40
2023-02-09T23:47:49.235Z,15.50
2023-02-09T23:50:17.302Z,15.10
2023-02-09T23:52:45.299Z,15.97
2023-02-09T23:55:13.424Z,12.23
2023-02-09T23:57:41.337Z,17.73
